createdAt,value
2023-05-16T00:02:10.820Z,100131.28
2023-05-16T00:07:13.468Z,100144.22
2023-05-16T00:12:17.945Z,100145.91
2023-05-16T00:17:21.163Z,100139.00
2023-05-16T00:22:24.807Z,100140.75
2023-05-16T00:27:27.592Z,100145.00
2023-05-16T00:32:30.423Z,100143.25
2023-05-16T00:37:33.199Z,100163.78
2023-05-16T00:42:36.136Z,100148.34
2023-05-16T00:47:40.556Z,100140.69
2023-05-16T00:52:43.383Z,100145.72
2023-05-16T00:57:46.290Z,100128.50
2023-05-16T01:02:52.081Z,100132.91
2023-05-16T01:07:55.542Z,100125.16
2023-05-16T01:13:12.880Z,100103.59
2023-05-16T01:18:31.003Z,100128.53
2023-05-16T01:23:51.953Z,100119.91
2023-05-16T01:28:55.548Z,100118.19
2023-05-16T01:33:58.234Z,100110.72
2023-05-16T01:39:27.919Z,100109.66
2023-05-16T01:45:07.746Z,100102.75
2023-05-16T01:50:20.709Z,100095.41
2023-05-16T01:55:56.260Z,100090.97
2023-05-16T02:01:08.353Z,100088.72
2023-05-16T02:06:13.001Z,100091.00
2023-05-16T02:11:15.880Z,100107.03
2023-05-16T02:16:19.723Z,100101.16
2023-05-16T02:21:22.508Z,100100.19
2023-05-16T02:26:25.262Z,100100.06
2023-05-16T02:31:33.532Z,100098.91
2023-05-16T02:36:37.154Z,100087.88
2023-05-16T02:41:40.009Z,100075.88
2023-05-16T02:46:44.659Z,100086.94
2023-05-16T02:51:48.164Z,100078.56
2023-05-16T02:56:51.036Z,100068.34
2023-05-16T03:01:55.504Z,100078.47
2023-05-16T03:06:58.386Z,100081.13
2023-05-16T03:12:03.818Z,100095.75
2023-05-16T03:17:06.649Z,100103.63
2023-05-16T03:22:09.304Z,100103.63
2023-05-16T03:27:15.008Z,100102.59
2023-05-16T03:32:19.857Z,100108.69
2023-05-16T03:37:22.649Z,100109.00
2023-05-16T03:42:25.330Z,100115.03
2023-05-16T03:47:31.398Z,100115.78
2023-05-16T03:52:34.799Z,100111.84
2023-05-16T03:57:41.414Z,100104.94
2023-05-16T04:02:44.344Z,100117.59
2023-05-16T04:07:47.172Z,100110.38
2023-05-16T04:12:49.912Z,100122.94
2023-05-16T04:17:52.718Z,100126.25
2023-05-16T04:22:55.730Z,100126.09
2023-05-16T04:27:58.486Z,100128.56
2023-05-16T04:33:01.564Z,100119.22
2023-05-16T04:38:04.869Z,100138.88
2023-05-16T04:43:08.365Z,100139.06
2023-05-16T04:48:12.257Z,100127.44
2023-05-16T04:53:15.254Z,100145.59
2023-05-16T04:58:18.075Z,100139.16
2023-05-16T05:03:21.251Z,100144.28
2023-05-16T05:08:24.050Z,100153.63
2023-05-16T05:13:26.705Z,100147.53
2023-05-16T05:18:29.736Z,100157.00
2023-05-16T05:23:33.088Z,100164.53
2023-05-16T05:28:36.902Z,100158.63
2023-05-16T05:33:39.669Z,100158.69
2023-05-16T05:38:42.377Z,100154.22
2023-05-16T05:43:45.084Z,100158.38
2023-05-16T05:48:47.738Z,100158.44
2023-05-16T05:53:50.651Z,100156.66
2023-05-16T05:58:53.325Z,100165.78
2023-05-16T06:03:59.276Z,100163.81
2023-05-16T06:09:03.806Z,100172.16
2023-05-16T06:14:06.500Z,100171.53
2023-05-16T06:19:10.304Z,100176.59
2023-05-16T06:24:13.145Z,100170.97
2023-05-16T06:29:16.684Z,100158.34
2023-05-16T06:34:19.428Z,100167.53
2023-05-16T06:39:22.205Z,100168.78
2023-05-16T06:44:24.936Z,100153.06
2023-05-16T06:49:27.659Z,100160.97
2023-05-16T06:54:30.314Z,100162.16
2023-05-16T06:59:33.046Z,100170.25
2023-05-16T07:04:38.430Z,100165.38
2023-05-16T07:09:41.277Z,100171.09
2023-05-16T07:14:44.072Z,100164.41
2023-05-16T07:19:47.314Z,100167.13
2023-05-16T07:24:50.128Z,100160.38
2023-05-16T07:29:52.851Z,100168.56
2023-05-16T07:34:55.670Z,100165.72
2023-05-16T07:39:58.397Z,100148.28
2023-05-16T07:45:02.281Z,100159.88
2023-05-16T07:50:08.109Z,100157.84
2023-05-16T07:55:11.115Z,100150.63
2023-05-16T08:00:14.848Z,100173.41
2023-05-16T08:05:17.956Z,100170.66
2023-05-16T08:10:20.641Z,100151.75
2023-05-16T08:15:23.448Z,100147.94
2023-05-16T08:20:26.610Z,100146.22
2023-05-16T08:25:29.954Z,100152.06
2023-05-16T08:30:32.859Z,100154.88
2023-05-16T08:35:35.770Z,100152.84
2023-05-16T08:40:39.989Z,100153.47
2023-05-16T08:45:42.888Z,100146.88
2023-05-16T08:50:45.805Z,100127.44
2023-05-16T08:55:50.284Z,100138.59
2023-05-16T09:00:53.104Z,100130.06
2023-05-16T09:05:56.655Z,100131.03
2023-05-16T09:10:59.730Z,100126.44
2023-05-16T09:16:13.734Z,100129.00
2023-05-16T09:21:17.105Z,100124.84
2023-05-16T09:26:19.974Z,100119.81
2023-05-16T09:31:27.787Z,100111.47
2023-05-16T09:36:35.638Z,100104.53
2023-05-16T09:41:38.694Z,100117.34
2023-05-16T09:46:41.759Z,100104.81
2023-05-16T09:51:44.607Z,100100.38
2023-05-16T09:56:51.681Z,100096.63
2023-05-16T10:01:55.175Z,100088.38
2023-05-16T10:07:02.137Z,100090.22
2023-05-16T10:12:09.200Z,100074.16
2023-05-16T10:17:14.509Z,100052.72
2023-05-16T10:22:18.101Z,100077.78
2023-05-16T10:27:21.323Z,100074.09
2023-05-16T10:32:25.569Z,100064.13
2023-05-16T10:37:29.962Z,100063.97
2023-05-16T10:42:33.855Z,100067.16
2023-05-16T10:47:36.805Z,100062.13
2023-05-16T10:52:39.439Z,100047.91
2023-05-16T10:57:45.120Z,100041.28
2023-05-16T11:02:48.180Z,100052.97
2023-05-16T11:08:09.234Z,100043.69
2023-05-16T11:13:12.159Z,100045.63
2023-05-16T11:18:16.481Z,100038.88
2023-05-16T11:23:24.141Z,100035.09
2023-05-16T11:28:28.280Z,100018.25
2023-05-16T11:33:35.741Z,100020.72
2023-05-16T11:38:43.483Z,100029.06
2023-05-16T11:43:46.509Z,100012.38
2023-05-16T11:48:49.267Z,100020.19
2023-05-16T11:53:52.303Z,100012.25
2023-05-16T11:58:55.268Z,100022.56
2023-05-16T12:03:58.434Z,100019.44
2023-05-16T12:09:04.300Z,100005.19
2023-05-16T12:14:09.768Z,100020.63
2023-05-16T12:19:13.027Z,99996.19
2023-05-16T12:24:16.933Z,99996.44
2023-05-16T12:29:21.976Z,100006.06
2023-05-16T12:34:28.720Z,99995.50
2023-05-16T12:39:38.273Z,99993.72
2023-05-16T12:44:45.765Z,100001.09
2023-05-16T12:49:51.413Z,99970.38
2023-05-16T12:54:54.234Z,99983.31
2023-05-16T12:59:57.272Z,99969.50
2023-05-16T13:04:59.898Z,99978.59
2023-05-16T13:10:03.133Z,99975.31
2023-05-16T13:15:11.949Z,99977.09
2023-05-16T13:20:15.374Z,99981.03
2023-05-16T13:25:18.374Z,99981.28
2023-05-16T13:30:22.960Z,99977.69
2023-05-16T13:35:26.768Z,99977.28
2023-05-16T13:40:29.912Z,99973.28
2023-05-16T13:45:32.618Z,99959.97
2023-05-16T13:50:35.785Z,99967.16
2023-05-16T13:55:38.798Z,99967.06
2023-05-16T14:00:45.703Z,99967.91
2023-05-16T14:05:49.807Z,99968.50
2023-05-16T14:10:52.646Z,99957.50
2023-05-16T14:15:55.676Z,99959.72
2023-05-16T14:20:58.505Z,99955.53
2023-05-16T14:26:01.261Z,99963.66
2023-05-16T14:31:04.366Z,99954.34
2023-05-16T14:36:08.887Z,99968.69
2023-05-16T14:41:14.858Z,99948.81
2023-05-16T14:46:17.702Z,99962.63
2023-05-16T14:51:20.848Z,99971.00
2023-05-16T14:56:23.726Z,99967.28
2023-05-16T15:01:26.826Z,99966.66
2023-05-16T15:06:30.288Z,99964.19
2023-05-16T15:11:33.138Z,99968.19
2023-05-16T15:16:36.024Z,99954.00
2023-05-16T15:21:39.005Z,99957.00
2023-05-16T15:26:41.982Z,99944.94
2023-05-16T15:31:44.798Z,99959.25
2023-05-16T15:36:47.578Z,99920.09
2023-05-16T15:42:09.297Z,99961.56
2023-05-16T15:47:12.935Z,99956.50
2023-05-16T15:52:15.711Z,99952.69
2023-05-16T15:57:19.288Z,99947.97
2023-05-16T16:02:22.001Z,99964.81
2023-05-16T16:07:24.935Z,99970.31
2023-05-16T16:12:29.998Z,99972.63
2023-05-16T16:17:34.067Z,99988.03
2023-05-16T16:22:36.868Z,99981.34
2023-05-16T16:27:39.639Z,99981.78
2023-05-16T16:32:42.452Z,99994.09
2023-05-16T16:37:58.253Z,99996.84
2023-05-16T16:43:08.763Z,100012.84
2023-05-16T16:48:11.932Z,100010.81
2023-05-16T16:53:14.837Z,100016.56
2023-05-16T16:58:17.523Z,100014.34
2023-05-16T17:03:21.463Z,100021.78
2023-05-16T17:08:25.082Z,100018.97
2023-05-16T17:13:33.768Z,100019.81
2023-05-16T17:18:37.049Z,100017.91
2023-05-16T17:23:41.708Z,100026.16
2023-05-16T17:28:49.737Z,100023.25
2023-05-16T17:33:53.503Z,100034.94
2023-05-16T17:38:57.391Z,100035.22
2023-05-16T17:44:00.172Z,100038.13
2023-05-16T17:49:02.960Z,100039.66
2023-05-16T17:54:06.573Z,100046.88
2023-05-16T17:59:10.281Z,100047.28
2023-05-16T18:04:13.439Z,100053.91
2023-05-16T18:09:16.215Z,100045.06
2023-05-16T18:14:19.293Z,100062.53
2023-05-16T18:19:22.206Z,100062.09
2023-05-16T18:24:25.409Z,100065.88
2023-05-16T18:29:28.138Z,100062.41
2023-05-16T18:34:31.675Z,100064.53
2023-05-16T18:39:34.402Z,100064.81
2023-05-16T18:44:37.565Z,100076.97
2023-05-16T18:49:40.245Z,100074.63
2023-05-16T18:54:42.939Z,100068.63
2023-05-16T19:00:06.431Z,100071.38
2023-05-16T19:05:21.734Z,100078.44
2023-05-16T19:10:27.031Z,100072.56
2023-05-16T19:15:30.102Z,100077.00
2023-05-16T19:20:34.886Z,100068.53
2023-05-16T19:25:37.747Z,100057.38
2023-05-16T19:30:40.816Z,100057.47
2023-05-16T19:35:43.508Z,100057.56
2023-05-16T19:40:46.980Z,100062.59
2023-05-16T19:45:50.019Z,100062.56
2023-05-16T19:50:53.536Z,100071.28
2023-05-16T19:55:56.537Z,100075.63
2023-05-16T20:00:59.346Z,100090.63
2023-05-16T20:06:26.989Z,100096.03
2023-05-16T20:11:30.365Z,100092.75
2023-05-16T20:16:33.159Z,100085.16
2023-05-16T20:21:35.942Z,100096.59
2023-05-16T20:26:38.755Z,100099.47
2023-05-16T20:31:43.874Z,100098.81
2023-05-16T20:36:46.647Z,100107.59
2023-05-16T20:41:49.490Z,100107.97
2023-05-16T20:46:52.439Z,100103.09
2023-05-16T20:51:55.798Z,100106.66
2023-05-16T20:56:58.671Z,100098.25
2023-05-16T21:02:01.603Z,100098.38
2023-05-16T21:07:06.842Z,100088.94
2023-05-16T21:12:11.479Z,100095.06
2023-05-16T21:17:14.773Z,100083.09
2023-05-16T21:22:17.575Z,100090.13
2023-05-16T21:27:20.377Z,100077.22
2023-05-16T21:32:23.323Z,100075.66
2023-05-16T21:37:26.120Z,100067.06
2023-05-16T21:42:28.816Z,100074.09
2023-05-16T21:47:31.610Z,100078.59
2023-05-16T21:52:34.491Z,100083.13
2023-05-16T21:57:37.317Z,100065.94
2023-05-16T22:02:40.068Z,100080.72
2023-05-16T22:07:43.038Z,100079.94
2023-05-16T22:12:45.725Z,100087.81
2023-05-16T22:17:48.629Z,100089.66
2023-05-16T22:22:52.330Z,100075.00
2023-05-16T22:27:55.017Z,100075.91
2023-05-16T22:32:57.793Z,100075.16
2023-05-16T22:38:00.836Z,100077.69
2023-05-16T22:43:03.668Z,100058.72
2023-05-16T22:48:06.642Z,100067.31
2023-05-16T22:53:09.398Z,100072.56
2023-05-16T22:58:12.102Z,100080.34
2023-05-16T23:03:14.850Z,100076.19
2023-05-16T23:08:17.554Z,100075.38
2023-05-16T23:13:20.270Z,100069.47
2023-05-16T23:18:23.178Z,100077.16
2023-05-16T23:23:26.102Z,100082.28
2023-05-16T23:28:28.823Z,100078.75
2023-05-16T23:33:31.602Z,100077.75
2023-05-16T23:38:34.297Z,100089.91
2023-05-16T23:43:37.214Z,100091.66
2023-05-16T23:48:40.169Z,100083.09
2023-05-16T23:53:43.031Z,100090.97
2023-05-16T23:58:45.790Z,100090.09
